createdAt,value
2023-04-15T00:01:02.702Z,10.99
2023-04-15T00:03:29.956Z,10.71
2023-04-15T00:05:58.324Z,10.26
2023-04-15T00:08:25.668Z,10.47
2023-04-15T00:10:53.314Z,10.75
2023-04-15T00:13:20.373Z,10.85
2023-04-15T00:15:48.114Z,10.79
2023-04-15T00:18:15.063Z,10.91
2023-04-15T00:20:42.440Z,10.23
2023-04-15T00:23:09.520Z,10.49
2023-04-15T00:25:36.726Z,10.53
2023-04-15T00:28:04.166Z,10.15
2023-04-15T00:30:31.690Z,10.22
2023-04-15T00:32:58.841Z,10.56
2023-04-15T00:35:25.942Z,9.57
2023-04-15T00:37:52.965Z,8.63
2023-04-15T00:40:20.967Z,7.98
2023-04-15T00:42:48.075Z,7.76
2023-04-15T00:45:15.737Z,8.06
2023-04-15T00:47:43.488Z,8.00
2023-04-15T00:50:12.934Z,7.67
2023-04-15T00:52:40.829Z,7.70
2023-04-15T00:55:08.809Z,7.57
2023-04-15T00:57:36.468Z,7.45
2023-04-15T01:00:05.785Z,7.65
2023-04-15T01:02:33.564Z,7.30
2023-04-15T01:05:02.287Z,7.34
2023-04-15T01:07:29.280Z,8.11
2023-04-15T01:09:56.253Z,8.62
2023-04-15T01:12:23.459Z,9.21
2023-04-15T01:14:50.876Z,9.57
2023-04-15T01:17:17.917Z,9.85
2023-04-15T01:19:44.931Z,9.73
2023-04-15T01:22:11.899Z,10.09
2023-04-15T01:24:39.025Z,10.44
2023-04-15T01:27:06.154Z,10.86
2023-04-15T01:29:34.818Z,10.83
2023-04-15T01:32:02.141Z,10.92
2023-04-15T01:34:47.823Z,10.89
2023-04-15T01:37:33.360Z,10.72
2023-04-15T01:40:00.329Z,10.84
2023-04-15T01:42:27.830Z,10.81
2023-04-15T01:44:56.427Z,10.93
2023-04-15T01:47:24.724Z,10.36
2023-04-15T01:49:52.929Z,9.75
2023-04-15T01:52:21.112Z,10.20
2023-04-15T01:54:49.378Z,10.43
2023-04-15T01:57:17.730Z,10.51
2023-04-15T01:59:47.093Z,10.51
2023-04-15T02:02:16.608Z,10.67
2023-04-15T02:04:45.409Z,10.75
2023-04-15T02:07:14.565Z,10.84
2023-04-15T02:09:43.570Z,10.81
2023-04-15T02:12:12.494Z,10.74
2023-04-15T02:14:40.766Z,10.59
2023-04-15T02:17:09.051Z,10.62
2023-04-15T02:19:37.263Z,10.33
2023-04-15T02:22:07.504Z,10.54
2023-04-15T02:24:35.998Z,10.44
2023-04-15T02:27:04.642Z,10.60
2023-04-15T02:29:33.145Z,10.52
2023-04-15T02:32:02.526Z,10.76
2023-04-15T02:34:31.600Z,9.68
2023-04-15T02:36:59.893Z,10.07
2023-04-15T02:39:28.239Z,9.95
2023-04-15T02:41:56.886Z,10.29
2023-04-15T02:44:25.246Z,10.27
2023-04-15T02:46:58.826Z,10.43
2023-04-15T02:49:29.936Z,10.39
2023-04-15T02:52:00.012Z,9.98
2023-04-15T02:54:32.673Z,9.94
2023-04-15T02:57:01.726Z,10.11
2023-04-15T02:59:30.243Z,9.96
2023-04-15T03:02:01.174Z,9.87
2023-04-15T03:04:32.332Z,10.18
2023-04-15T03:07:01.883Z,10.47
2023-04-15T03:09:30.366Z,10.57
2023-04-15T03:11:59.806Z,10.56
2023-04-15T03:14:28.123Z,10.59
2023-04-15T03:16:56.670Z,10.14
2023-04-15T03:19:25.715Z,10.38
2023-04-15T03:21:53.908Z,10.42
2023-04-15T03:24:22.258Z,10.33
2023-04-15T03:26:50.753Z,10.34
2023-04-15T03:29:19.653Z,9.87
2023-04-15T03:31:48.402Z,10.34
2023-04-15T03:34:17.760Z,10.37
2023-04-15T03:36:46.903Z,10.43
2023-04-15T03:39:15.401Z,10.00
2023-04-15T03:41:43.579Z,8.41
2023-04-15T03:44:11.788Z,8.84
2023-04-15T03:46:40.127Z,8.77
2023-04-15T03:49:09.022Z,9.28
2023-04-15T03:51:37.180Z,9.36
2023-04-15T03:54:05.813Z,9.14
2023-04-15T03:56:34.038Z,9.14
2023-04-15T03:59:02.436Z,8.89
2023-04-15T04:01:30.926Z,9.32
2023-04-15T04:03:59.273Z,8.89
2023-04-15T04:06:27.539Z,8.66
2023-04-15T04:08:56.748Z,9.14
2023-04-15T04:11:25.452Z,8.36
2023-04-15T04:13:54.214Z,8.73
2023-04-15T04:16:22.512Z,8.69
2023-04-15T04:18:51.030Z,8.87
2023-04-15T04:21:19.267Z,9.29
2023-04-15T04:23:47.464Z,9.67
2023-04-15T04:26:15.710Z,9.69
2023-04-15T04:28:43.961Z,9.55
2023-04-15T04:31:12.171Z,9.48
2023-04-15T04:33:40.526Z,9.57
2023-04-15T04:36:08.799Z,9.82
2023-04-15T04:38:37.049Z,8.32
2023-04-15T04:41:05.995Z,9.34
2023-04-15T04:43:34.200Z,9.70
2023-04-15T04:46:02.554Z,10.03
2023-04-15T04:48:30.902Z,9.91
2023-04-15T04:50:59.082Z,9.84
2023-04-15T04:53:28.088Z,10.14
2023-04-15T04:55:56.440Z,9.56
2023-04-15T04:58:24.630Z,9.94
2023-04-15T05:00:53.073Z,10.15
2023-04-15T05:03:22.138Z,10.08
2023-04-15T05:05:50.723Z,10.10
2023-04-15T05:08:18.985Z,9.11
2023-04-15T05:10:47.286Z,9.46
2023-04-15T05:13:15.565Z,9.51
2023-04-15T05:15:43.871Z,9.74
2023-04-15T05:18:12.116Z,9.86
2023-04-15T05:20:40.488Z,9.85
2023-04-15T05:23:08.764Z,9.66
2023-04-15T05:25:36.946Z,9.58
2023-04-15T05:28:05.351Z,8.49
2023-04-15T05:30:33.566Z,8.85
2023-04-15T05:33:02.002Z,9.23
2023-04-15T05:35:30.338Z,8.55
2023-04-15T05:37:58.478Z,7.72
2023-04-15T05:40:26.785Z,7.53
2023-04-15T05:42:54.969Z,8.06
2023-04-15T05:45:23.185Z,8.06
2023-04-15T05:47:54.399Z,8.62
2023-04-15T05:50:22.709Z,7.79
2023-04-15T05:52:50.858Z,8.26
2023-04-15T05:55:19.165Z,8.14
2023-04-15T05:57:47.377Z,7.94
2023-04-15T06:00:16.500Z,8.13
2023-04-15T06:02:44.972Z,8.41
2023-04-15T06:05:13.858Z,8.40
2023-04-15T06:07:44.215Z,8.44
2023-04-15T06:10:13.033Z,8.91
2023-04-15T06:12:41.209Z,9.08
2023-04-15T06:15:12.668Z,9.11
2023-04-15T06:17:40.956Z,9.46
2023-04-15T06:20:09.681Z,8.07
2023-04-15T06:22:39.118Z,8.76
2023-04-15T06:25:08.863Z,9.26
2023-04-15T06:27:37.039Z,9.60
2023-04-15T06:30:05.790Z,9.21
2023-04-15T06:32:34.340Z,9.58
2023-04-15T06:35:02.768Z,9.25
2023-04-15T06:37:31.511Z,9.43
2023-04-15T06:40:00.026Z,9.73
2023-04-15T06:42:28.199Z,9.62
2023-04-15T06:44:56.454Z,8.98
2023-04-15T06:47:24.634Z,9.79
2023-04-15T06:49:52.909Z,10.01
2023-04-15T06:52:21.308Z,10.07
2023-04-15T06:54:49.610Z,10.13
2023-04-15T06:57:17.749Z,9.33
2023-04-15T06:59:46.212Z,9.61
2023-04-15T07:02:14.880Z,9.40
2023-04-15T07:04:43.164Z,9.68
2023-04-15T07:07:11.276Z,9.10
2023-04-15T07:09:39.547Z,9.00
2023-04-15T07:12:07.777Z,8.39
2023-04-15T07:14:36.602Z,8.62
2023-04-15T07:17:04.808Z,9.03
2023-04-15T07:19:33.043Z,9.95
2023-04-15T07:22:01.360Z,9.33
2023-04-15T07:24:30.175Z,9.93
2023-04-15T07:27:00.801Z,9.99
2023-04-15T07:29:29.544Z,9.85
2023-04-15T07:31:57.921Z,10.04
2023-04-15T07:34:26.366Z,9.68
2023-04-15T07:36:54.630Z,8.47
2023-04-15T07:39:23.349Z,9.16
2023-04-15T07:41:52.320Z,9.33
2023-04-15T07:44:20.568Z,10.05
2023-04-15T07:46:48.858Z,8.99
2023-04-15T07:49:19.371Z,8.79
2023-04-15T07:51:47.965Z,8.95
2023-04-15T07:54:16.373Z,9.39
2023-04-15T07:56:44.549Z,9.55
2023-04-15T07:59:13.158Z,8.61
2023-04-15T08:01:41.337Z,8.97
2023-04-15T08:04:09.835Z,9.15
2023-04-15T08:06:40.091Z,9.76
2023-04-15T08:09:08.489Z,9.96
2023-04-15T08:11:36.732Z,10.21
2023-04-15T08:14:05.038Z,9.74
2023-04-15T08:16:33.381Z,10.15
2023-04-15T08:19:01.830Z,10.25
2023-04-15T08:21:31.078Z,10.40
2023-04-15T08:24:00.272Z,10.20
2023-04-15T08:26:28.667Z,10.51
2023-04-15T08:28:57.486Z,10.50
2023-04-15T08:31:26.744Z,10.37
2023-04-15T08:33:56.961Z,8.84
2023-04-15T08:36:25.637Z,9.80
2023-04-15T08:38:53.846Z,9.43
2023-04-15T08:41:26.276Z,9.30
2023-04-15T08:43:58.209Z,9.39
2023-04-15T08:46:26.805Z,9.93
2023-04-15T08:48:57.042Z,9.88
2023-04-15T08:51:25.624Z,10.11
2023-04-15T08:53:54.094Z,9.90
2023-04-15T08:56:24.657Z,9.68
2023-04-15T08:58:52.887Z,9.50
2023-04-15T09:01:21.839Z,9.21
2023-04-15T09:03:50.957Z,8.57
2023-04-15T09:06:19.210Z,9.61
2023-04-15T09:08:47.780Z,9.13
2023-04-15T09:11:19.928Z,9.95
2023-04-15T09:13:49.479Z,9.58
2023-04-15T09:16:17.769Z,9.30
2023-04-15T09:18:46.292Z,9.07
2023-04-15T09:21:16.765Z,9.82
2023-04-15T09:24:01.640Z,9.63
2023-04-15T09:26:34.187Z,10.14
2023-04-15T09:29:14.795Z,10.31
2023-04-15T09:31:43.598Z,10.20
2023-04-15T09:34:11.833Z,10.32
2023-04-15T09:36:51.878Z,10.00
2023-04-15T09:39:20.134Z,10.39
2023-04-15T09:42:04.252Z,10.20
2023-04-15T09:44:32.443Z,10.93
2023-04-15T09:47:00.941Z,9.80
2023-04-15T09:49:29.188Z,10.25
2023-04-15T09:52:05.752Z,10.47
2023-04-15T09:54:38.480Z,10.32
2023-04-15T09:57:07.816Z,10.18
2023-04-15T09:59:36.354Z,11.14
2023-04-15T10:02:05.428Z,10.46
2023-04-15T10:04:36.642Z,11.10
2023-04-15T10:07:05.549Z,10.11
2023-04-15T10:09:34.900Z,10.57
2023-04-15T10:12:04.358Z,11.16
2023-04-15T10:14:34.378Z,10.31
2023-04-15T10:17:04.272Z,10.27
2023-04-15T10:19:33.770Z,10.98
2023-04-15T10:22:02.369Z,10.74
2023-04-15T10:24:32.141Z,10.83
2023-04-15T10:27:00.819Z,10.02
2023-04-15T10:29:29.061Z,10.93
2023-04-15T10:31:57.312Z,9.24
2023-04-15T10:34:25.693Z,10.68
2023-04-15T10:36:58.218Z,11.32
2023-04-15T10:39:43.020Z,11.67
2023-04-15T10:42:15.621Z,10.01
2023-04-15T10:44:52.976Z,11.00
2023-04-15T10:47:21.818Z,11.14
2023-04-15T10:49:59.919Z,10.78
2023-04-15T10:52:28.791Z,11.25
2023-04-15T10:55:16.541Z,10.98
2023-04-15T10:57:45.082Z,10.79
2023-04-15T11:00:14.032Z,10.75
2023-04-15T11:02:44.407Z,10.79
2023-04-15T11:05:13.880Z,11.35
2023-04-15T11:07:48.809Z,11.62
2023-04-15T11:10:26.346Z,10.54
2023-04-15T11:12:57.436Z,11.56
2023-04-15T11:15:34.686Z,11.73
2023-04-15T11:18:10.945Z,10.24
2023-04-15T11:20:40.024Z,11.31
2023-04-15T11:23:15.265Z,10.89
2023-04-15T11:25:44.235Z,11.11
2023-04-15T11:28:13.084Z,10.14
2023-04-15T11:30:42.674Z,10.98
2023-04-15T11:33:12.482Z,10.52
2023-04-15T11:35:44.180Z,10.80
2023-04-15T11:38:13.996Z,11.42
2023-04-15T11:40:45.347Z,10.82
2023-04-15T11:43:21.005Z,9.87
2023-04-15T11:46:00.398Z,10.09
2023-04-15T11:48:30.050Z,9.85
2023-04-15T11:51:01.098Z,10.14
2023-04-15T11:53:44.353Z,10.25
2023-04-15T11:56:12.358Z,11.10
2023-04-15T11:58:39.529Z,9.34
2023-04-15T12:01:06.897Z,9.55
2023-04-15T12:03:45.278Z,9.38
2023-04-15T12:06:19.793Z,10.28
2023-04-15T12:08:55.794Z,11.28
2023-04-15T12:11:31.908Z,11.20
2023-04-15T12:14:03.334Z,11.22
2023-04-15T12:16:30.701Z,9.62
2023-04-15T12:18:59.113Z,10.08
2023-04-15T12:21:27.899Z,10.47
2023-04-15T12:23:56.042Z,10.64
2023-04-15T12:26:27.527Z,9.75
2023-04-15T12:28:56.342Z,10.13
2023-04-15T12:31:23.845Z,9.67
2023-04-15T12:33:51.084Z,9.80
2023-04-15T12:36:18.081Z,10.06
2023-04-15T12:38:45.099Z,9.00
2023-04-15T12:41:12.177Z,8.89
2023-04-15T12:43:39.154Z,8.87
2023-04-15T12:46:07.070Z,8.89
2023-04-15T12:48:34.906Z,8.99
2023-04-15T12:51:03.410Z,8.05
2023-04-15T12:53:32.158Z,8.89
2023-04-15T12:55:59.148Z,9.93
2023-04-15T12:58:26.221Z,9.16
2023-04-15T13:00:53.198Z,8.28
2023-04-15T13:03:20.172Z,9.51
2023-04-15T13:05:47.229Z,8.65
2023-04-15T13:08:14.179Z,8.77
2023-04-15T13:10:42.517Z,9.49
2023-04-15T13:13:09.704Z,9.98
2023-04-15T13:15:37.154Z,9.40
2023-04-15T13:18:05.495Z,9.68
2023-04-15T13:20:32.506Z,10.18
2023-04-15T13:22:59.468Z,9.92
2023-04-15T13:25:27.211Z,9.94
2023-04-15T13:27:54.481Z,10.19
2023-04-15T13:30:21.523Z,9.66
2023-04-15T13:32:50.561Z,9.87
2023-04-15T13:35:17.920Z,9.71
2023-04-15T13:37:46.172Z,10.21
2023-04-15T13:40:13.206Z,9.00
2023-04-15T13:42:41.040Z,9.56
2023-04-15T13:45:08.494Z,9.50
2023-04-15T13:47:35.431Z,9.19
2023-04-15T13:50:02.558Z,8.79
2023-04-15T13:52:29.588Z,8.98
2023-04-15T13:55:06.960Z,8.71
2023-04-15T13:57:43.521Z,9.26
2023-04-15T14:00:11.184Z,9.49
2023-04-15T14:02:38.463Z,9.13
2023-04-15T14:05:05.983Z,9.41
2023-04-15T14:07:32.994Z,9.65
2023-04-15T14:10:00.545Z,9.89
2023-04-15T14:12:27.532Z,9.78
2023-04-15T14:14:54.632Z,9.29
2023-04-15T14:17:21.700Z,8.83
2023-04-15T14:19:48.819Z,9.55
2023-04-15T14:22:15.857Z,9.20
2023-04-15T14:24:42.941Z,8.88
2023-04-15T14:27:11.334Z,8.50
2023-04-15T14:29:38.439Z,8.97
2023-04-15T14:32:11.918Z,9.13
2023-04-15T14:34:40.564Z,8.68
2023-04-15T14:37:07.738Z,9.19
2023-04-15T14:39:34.857Z,8.50
2023-04-15T14:42:02.008Z,8.85
2023-04-15T14:44:29.299Z,9.61
2023-04-15T14:46:56.360Z,9.31
2023-04-15T14:49:23.877Z,9.04
2023-04-15T14:51:50.953Z,9.75
2023-04-15T14:54:18.051Z,9.48
2023-04-15T14:56:45.407Z,9.92
2023-04-15T14:59:12.791Z,9.43
2023-04-15T15:01:39.888Z,9.04
2023-04-15T15:04:07.395Z,9.82
2023-04-15T15:06:34.826Z,9.14
2023-04-15T15:09:02.317Z,9.55
2023-04-15T15:11:29.838Z,10.17
2023-04-15T15:13:57.176Z,9.46
2023-04-15T15:16:24.744Z,9.73
2023-04-15T15:18:52.934Z,9.36
2023-04-15T15:21:19.983Z,9.30
2023-04-15T15:23:48.558Z,10.11
2023-04-15T15:26:15.961Z,9.94
2023-04-15T15:28:43.329Z,10.46
2023-04-15T15:31:10.491Z,10.83
2023-04-15T15:33:37.587Z,10.34
2023-04-15T15:36:04.622Z,10.32
2023-04-15T15:38:31.632Z,10.21
2023-04-15T15:40:58.588Z,9.85
2023-04-15T15:43:25.840Z,10.20
2023-04-15T15:45:55.533Z,10.46
2023-04-15T15:48:25.633Z,10.33
2023-04-15T15:50:52.950Z,9.98
2023-04-15T15:53:21.382Z,10.02
2023-04-15T15:55:48.497Z,10.36
2023-04-15T15:58:15.624Z,9.70
2023-04-15T16:00:43.100Z,10.25
2023-04-15T16:03:10.301Z,10.55
2023-04-15T16:05:37.867Z,10.44
2023-04-15T16:08:05.246Z,10.94
2023-04-15T16:10:32.302Z,11.08
2023-04-15T16:12:59.348Z,11.01
2023-04-15T16:15:26.407Z,10.86
2023-04-15T16:17:53.502Z,10.79
2023-04-15T16:20:20.507Z,11.04
2023-04-15T16:22:47.465Z,10.28
2023-04-15T16:25:14.426Z,10.28
2023-04-15T16:27:56.509Z,10.16
2023-04-15T16:30:26.276Z,10.42
2023-04-15T16:32:53.348Z,10.51
2023-04-15T16:35:20.485Z,10.85
2023-04-15T16:37:47.619Z,11.18
2023-04-15T16:40:15.002Z,11.06
2023-04-15T16:42:43.772Z,10.71
2023-04-15T16:45:11.958Z,11.01
2023-04-15T16:47:39.042Z,11.06
2023-04-15T16:50:06.790Z,10.98
2023-04-15T16:52:33.869Z,10.33
2023-04-15T16:55:00.900Z,10.19
2023-04-15T16:57:50.834Z,9.80
2023-04-15T17:00:16.012Z,10.61
2023-04-15T17:02:43.256Z,10.20
2023-04-15T17:05:10.341Z,10.63
2023-04-15T17:07:37.427Z,9.99
2023-04-15T17:10:04.828Z,9.96
2023-04-15T17:12:31.888Z,9.97
2023-04-15T17:14:58.862Z,9.06
2023-04-15T17:17:25.971Z,9.68
2023-04-15T17:19:53.429Z,9.22
2023-04-15T17:22:20.801Z,8.90
2023-04-15T17:24:47.945Z,9.08
2023-04-15T17:27:18.406Z,8.53
2023-04-15T17:29:45.934Z,8.98
2023-04-15T17:32:34.751Z,8.65
2023-04-15T17:35:23.130Z,9.74
2023-04-15T17:38:10.095Z,10.09
2023-04-15T17:40:56.998Z,10.24
2023-04-15T17:43:43.934Z,9.45
2023-04-15T17:46:30.963Z,10.28
2023-04-15T17:49:17.901Z,10.04
2023-04-15T17:52:04.893Z,10.59
2023-04-15T17:54:51.939Z,11.03
2023-04-15T17:57:38.859Z,10.28
2023-04-15T18:00:26.056Z,9.81
2023-04-15T18:03:13.305Z,10.45
2023-04-15T18:06:01.393Z,10.99
2023-04-15T18:08:48.913Z,10.89
2023-04-15T18:11:35.887Z,11.20
2023-04-15T18:14:33.408Z,11.47
2023-04-15T18:17:21.434Z,11.06
2023-04-15T18:20:08.686Z,10.79
2023-04-15T18:22:35.894Z,10.92
2023-04-15T18:25:04.414Z,11.22
2023-04-15T18:27:32.436Z,10.87
2023-04-15T18:29:59.514Z,9.73
2023-04-15T18:32:30.528Z,10.43
2023-04-15T18:34:58.780Z,10.23
2023-04-15T18:37:26.863Z,10.38
2023-04-15T18:39:54.257Z,10.68
2023-04-15T18:42:21.756Z,11.25
2023-04-15T18:44:49.396Z,10.62
2023-04-15T18:47:16.399Z,10.86
2023-04-15T18:49:43.496Z,11.43
2023-04-15T18:52:10.826Z,11.54
2023-04-15T18:54:38.044Z,11.54
2023-04-15T18:57:05.213Z,11.68
2023-04-15T18:59:32.722Z,10.45
2023-04-15T19:02:00.228Z,11.10
2023-04-15T19:04:29.375Z,11.20
2023-04-15T19:06:56.771Z,11.43
2023-04-15T19:09:23.880Z,11.55
2023-04-15T19:11:50.995Z,10.24
2023-04-15T19:14:18.442Z,9.92
2023-04-15T19:16:45.571Z,10.72
2023-04-15T19:19:14.700Z,10.96
2023-04-15T19:21:41.935Z,11.35
2023-04-15T19:24:09.034Z,11.12
2023-04-15T19:26:36.911Z,11.35
2023-04-15T19:29:04.177Z,10.72
2023-04-15T19:31:31.623Z,10.82
2023-04-15T19:33:58.667Z,10.71
2023-04-15T19:36:26.356Z,11.07
2023-04-15T19:38:53.546Z,10.74
2023-04-15T19:41:20.953Z,11.12
2023-04-15T19:43:48.050Z,11.48
2023-04-15T19:46:15.121Z,11.59
2023-04-15T19:48:42.251Z,11.01
2023-04-15T19:51:09.232Z,11.01
2023-04-15T19:53:36.381Z,11.49
2023-04-15T19:56:03.485Z,10.84
2023-04-15T19:58:32.505Z,10.54
2023-04-15T20:01:01.393Z,10.36
2023-04-15T20:03:28.709Z,10.34
2023-04-15T20:05:55.841Z,10.77
2023-04-15T20:08:22.851Z,10.59
2023-04-15T20:10:49.797Z,10.73
2023-04-15T20:13:16.770Z,11.01
2023-04-15T20:15:44.899Z,11.18
2023-04-15T20:18:11.931Z,10.96
2023-04-15T20:20:39.480Z,11.01
2023-04-15T20:23:06.428Z,10.78
2023-04-15T20:25:33.420Z,10.79
2023-04-15T20:28:01.192Z,10.77
2023-04-15T20:30:29.333Z,10.47
2023-04-15T20:32:56.709Z,10.58
2023-04-15T20:35:25.087Z,10.79
2023-04-15T20:37:52.105Z,10.81
2023-04-15T20:40:19.095Z,10.83
2023-04-15T20:42:46.101Z,10.99
2023-04-15T20:45:13.240Z,11.06
2023-04-15T20:47:40.266Z,9.21
2023-04-15T20:50:08.018Z,8.37
2023-04-15T20:52:34.963Z,8.57
2023-04-15T20:55:02.038Z,9.54
2023-04-15T20:57:30.268Z,8.63
2023-04-15T20:59:57.370Z,8.71
2023-04-15T21:02:24.490Z,9.35
2023-04-15T21:04:51.661Z,9.04
2023-04-15T21:07:18.637Z,8.89
2023-04-15T21:09:46.985Z,9.73
2023-04-15T21:12:13.940Z,9.22
2023-04-15T21:14:40.939Z,9.21
2023-04-15T21:17:10.848Z,8.82
2023-04-15T21:19:38.469Z,9.20
2023-04-15T21:22:05.468Z,9.24
2023-04-15T21:24:32.528Z,9.62
2023-04-15T21:26:59.521Z,9.99
2023-04-15T21:29:26.575Z,10.54
2023-04-15T21:31:53.659Z,10.61
2023-04-15T21:34:21.034Z,10.31
2023-04-15T21:36:48.635Z,10.52
2023-04-15T21:39:15.934Z,9.79
2023-04-15T21:41:43.214Z,9.50
2023-04-15T21:44:12.103Z,9.44
2023-04-15T21:46:40.345Z,8.92
2023-04-15T21:49:07.821Z,9.62
2023-04-15T21:51:35.193Z,8.72
2023-04-15T21:54:02.219Z,9.22
2023-04-15T21:56:29.356Z,9.30
2023-04-15T21:58:57.178Z,9.00
2023-04-15T22:01:24.563Z,9.46
2023-04-15T22:03:51.943Z,9.72
2023-04-15T22:06:19.142Z,9.88
2023-04-15T22:08:56.273Z,9.33
2023-04-15T22:11:28.194Z,8.57
2023-04-15T22:13:58.739Z,8.92
2023-04-15T22:16:26.551Z,8.52
2023-04-15T22:18:54.616Z,9.27
2023-04-15T22:21:21.638Z,9.36
2023-04-15T22:23:49.027Z,9.46
2023-04-15T22:26:16.098Z,9.49
2023-04-15T22:28:43.228Z,9.66
2023-04-15T22:31:10.592Z,9.25
2023-04-15T22:33:38.952Z,9.57
2023-04-15T22:36:06.378Z,9.14
2023-04-15T22:38:33.608Z,9.82
2023-04-15T22:41:00.760Z,10.19
2023-04-15T22:43:27.932Z,8.90
2023-04-15T22:45:55.212Z,9.92
2023-04-15T22:48:22.613Z,9.04
2023-04-15T22:50:49.800Z,9.78
2023-04-15T22:53:17.566Z,10.02
2023-04-15T22:55:46.636Z,9.52
2023-04-15T22:58:13.992Z,9.81
2023-04-15T23:00:41.108Z,9.52
2023-04-15T23:03:08.373Z,9.90
2023-04-15T23:05:35.507Z,9.70
2023-04-15T23:08:02.618Z,9.95
2023-04-15T23:10:29.627Z,8.63
2023-04-15T23:12:56.631Z,9.14
2023-04-15T23:15:23.784Z,9.49
2023-04-15T23:17:50.810Z,8.68
2023-04-15T23:20:17.930Z,9.13
2023-04-15T23:22:45.077Z,9.78
2023-04-15T23:25:12.116Z,8.97
2023-04-15T23:27:39.122Z,9.21
2023-04-15T23:30:06.970Z,9.82
2023-04-15T23:32:34.031Z,9.71
2023-04-15T23:35:01.078Z,9.87
2023-04-15T23:37:30.045Z,10.31
2023-04-15T23:39:57.080Z,9.16
2023-04-15T23:42:24.295Z,9.68
2023-04-15T23:44:51.392Z,9.34
2023-04-15T23:47:18.350Z,9.25
2023-04-15T23:49:45.505Z,9.15
2023-04-15T23:52:12.566Z,9.19
2023-04-15T23:54:39.706Z,8.95
2023-04-15T23:57:06.657Z,8.91
2023-04-15T23:59:33.710Z,8.47
